createdAt,value
2023-01-22T07:11:42.190Z,-2.40
2023-01-22T07:14:08.764Z,-2.00
2023-01-22T07:16:35.395Z,-2.10
2023-01-22T07:19:02.004Z,-2.10
2023-01-22T07:21:28.643Z,-2.20
2023-01-22T07:23:55.317Z,-2.10
2023-01-22T07:26:22.105Z,-2.10
2023-01-22T07:28:48.716Z,-2.20
2023-01-22T07:31:15.571Z,-2.10
2023-01-22T07:33:42.290Z,-2.10
2023-01-22T07:36:09.012Z,-2.10
2023-01-22T07:38:35.631Z,-2.10
2023-01-22T07:41:07.227Z,-2.10
2023-01-22T07:43:38.014Z,-2.10
2023-01-22T07:46:06.363Z,-2.10
2023-01-22T07:48:33.651Z,-2.00
2023-01-22T07:51:04.086Z,-2.10
2023-01-22T07:53:30.835Z,-2.10
2023-01-22T07:55:57.469Z,-2.00
2023-01-22T07:58:24.370Z,-2.10
2023-01-22T08:00:51.027Z,-2.10
2023-01-22T08:03:17.753Z,-2.10
2023-01-22T08:05:44.788Z,-2.00
2023-01-22T08:08:15.468Z,-2.00
2023-01-22T08:10:42.918Z,-2.00
2023-01-22T08:13:10.301Z,-2.00
2023-01-22T08:15:36.948Z,-2.00
2023-01-22T08:18:03.662Z,-2.00
2023-01-22T08:20:30.290Z,-2.00
2023-01-22T08:22:58.622Z,-2.00
2023-01-22T08:25:26.093Z,-1.90
2023-01-22T08:27:52.719Z,-1.90
2023-01-22T08:30:19.979Z,-1.90
2023-01-22T08:32:47.032Z,-1.80
2023-01-22T08:35:14.324Z,-1.70
2023-01-22T08:37:43.746Z,-1.70
2023-01-22T08:40:11.145Z,-1.70
2023-01-22T08:42:37.827Z,-1.60
2023-01-22T08:45:04.894Z,-1.80
2023-01-22T08:47:31.586Z,-1.60
2023-01-22T08:49:58.249Z,-1.50
2023-01-22T08:52:24.828Z,-1.40
2023-01-22T08:54:51.424Z,-1.40
2023-01-22T08:57:18.063Z,-1.40
2023-01-22T08:59:52.517Z,-1.30
2023-01-22T09:02:27.945Z,-1.20
2023-01-22T09:04:54.566Z,-1.30
2023-01-22T09:36:48.544Z,-1.20
2023-01-22T17:24:43.470Z,-0.40
2023-01-22T17:27:14.074Z,-1.20
2023-01-22T17:29:41.957Z,-1.20
2023-01-22T17:32:09.697Z,-1.30
2023-01-22T17:34:37.386Z,-1.30
2023-01-22T17:37:09.376Z,-1.30
2023-01-22T17:39:36.317Z,-1.40
2023-01-22T17:42:03.007Z,-1.40
2023-01-22T17:44:34.246Z,-1.30
2023-01-22T17:47:02.754Z,-1.40
2023-01-22T17:49:30.202Z,-1.20
2023-01-22T17:51:56.902Z,-1.20
2023-01-22T17:54:23.585Z,-1.10
2023-01-22T17:56:53.021Z,-0.90
2023-01-22T17:59:21.133Z,-0.90
2023-01-22T18:01:48.841Z,-0.80
2023-01-22T18:04:15.544Z,-0.80
2023-01-22T18:06:43.498Z,-1.10
2023-01-22T18:09:11.664Z,-1.20
2023-01-22T18:11:39.667Z,-1.50
2023-01-22T18:14:13.933Z,-1.60
2023-01-22T18:16:40.844Z,-1.60
2023-01-22T18:19:07.564Z,-1.70
2023-01-22T18:26:34.312Z,-1.80
2023-01-22T18:29:02.054Z,-2.10
2023-01-22T18:41:26.797Z,-2.20
2023-01-22T18:43:56.027Z,-2.50
2023-01-22T18:46:24.643Z,-2.50
2023-01-22T18:48:57.164Z,-2.50
2023-01-22T19:21:17.094Z,-2.50
2023-01-22T19:23:46.140Z,-2.70
2023-01-22T19:26:17.111Z,-2.60
2023-01-22T19:28:44.069Z,-2.70
2023-01-22T19:31:26.049Z,-2.70
2023-01-22T19:33:54.345Z,-2.70
2023-01-22T19:36:24.443Z,-2.70
2023-01-22T19:38:51.115Z,-2.70
2023-01-22T19:41:17.785Z,-2.70
2023-01-22T19:43:44.822Z,-2.70
2023-01-22T19:46:13.467Z,-2.70
2023-01-22T19:48:40.838Z,-2.70
2023-01-22T19:51:10.422Z,-2.70
2023-01-22T19:53:37.984Z,-2.70
2023-01-22T19:56:11.800Z,-2.70
2023-01-22T19:58:38.541Z,-2.70
2023-01-22T20:01:09.333Z,-2.70
2023-01-22T20:03:36.035Z,-2.70
2023-01-22T20:06:06.459Z,-2.60
2023-01-22T20:08:35.826Z,-2.60
2023-01-22T20:11:04.139Z,-2.60
2023-01-22T20:13:30.862Z,-2.60
2023-01-22T20:20:55.066Z,-2.60
2023-01-22T20:23:22.645Z,-2.80
2023-01-22T20:25:50.081Z,-2.90
2023-01-22T20:28:17.581Z,-2.90
2023-01-22T20:30:45.690Z,-3.00
2023-01-22T20:33:12.405Z,-2.90
2023-01-22T20:35:42.685Z,-3.00
2023-01-22T20:38:09.736Z,-3.00
2023-01-22T20:40:39.031Z,-3.00
2023-01-22T20:43:05.937Z,-3.00
2023-01-22T21:37:04.768Z,-3.00
2023-01-22T21:59:47.201Z,-3.90
2023-01-22T22:02:16.093Z,-3.90
2023-01-22T22:04:42.745Z,-3.90
2023-01-22T22:07:09.369Z,-3.90
2023-01-22T22:09:37.008Z,-3.90
2023-01-22T22:12:04.554Z,-4.00
2023-01-22T22:14:31.298Z,-4.10
2023-01-22T22:16:58.176Z,-4.10
2023-01-22T22:19:25.394Z,-4.10
2023-01-22T22:21:52.346Z,-4.20
2023-01-22T22:24:19.521Z,-4.20
2023-01-22T22:26:46.467Z,-4.20
2023-01-22T22:29:13.098Z,-4.20
2023-01-22T22:31:39.937Z,-4.10
2023-01-22T22:34:06.785Z,-4.00
2023-01-22T22:36:33.920Z,-4.00
2023-01-22T22:39:01.505Z,-3.90
2023-01-22T22:41:31.022Z,-3.90
2023-01-22T22:43:57.795Z,-3.90
2023-01-22T22:46:26.851Z,-3.90
2023-01-22T22:48:54.958Z,-3.80
2023-01-22T22:51:25.859Z,-3.80
2023-01-22T22:53:57.967Z,-3.80
2023-01-22T22:56:26.879Z,-3.80
2023-01-22T22:58:54.850Z,-3.80
2023-01-22T23:01:24.624Z,-3.80
2023-01-22T23:03:51.696Z,-3.80
2023-01-22T23:06:22.579Z,-3.70
2023-01-22T23:08:52.366Z,-3.70
2023-01-22T23:11:21.695Z,-3.70
2023-01-22T23:13:52.338Z,-3.60
2023-01-22T23:16:21.776Z,-3.60
2023-01-22T23:18:51.195Z,-3.60
2023-01-22T23:21:25.641Z,-3.50
2023-01-22T23:23:53.757Z,-3.50
2023-01-22T23:26:27.846Z,-3.60
2023-01-22T23:28:57.808Z,-3.70
2023-01-22T23:31:26.475Z,-3.60
2023-01-22T23:33:54.884Z,-3.60
2023-01-22T23:36:22.167Z,-3.60
2023-01-22T23:38:49.300Z,-3.50
2023-01-22T23:41:17.253Z,-3.40
2023-01-22T23:43:44.371Z,-3.30
2023-01-22T23:46:17.850Z,-3.20
2023-01-22T23:48:45.046Z,-3.20
2023-01-22T23:51:13.747Z,-3.10
2023-01-22T23:53:43.452Z,-3.00
2023-01-22T23:56:12.137Z,-3.00
2023-01-22T23:58:38.939Z,-3.00
